Time;durP1;ratioP1;P1;durP2;ratioP2;P2;SDS_P1;SDS_P2;PMS_P1;PMS_P2;Temp;Humidity;BMP_temperature;BMP_pressure;BME280_temperature;BME280_humidity;BME280_pressure;Samples;Min_cycle;Max_cycle;Signal;HPM_P1;HPM_P2
2022/03/27 00:01:07;;;;;;;37.75;32.83;;;7.70;63.40;;;;;;5092127;28;20195;-72
2022/03/27 00:03:35;;;;;;;36.55;33.15;;;7.70;64.10;;;;;;5092221;28;20227;-72
2022/03/27 00:06:02;;;;;;;38.13;34.38;;;7.60;64.50;;;;;;5095688;28;20196;-72
2022/03/27 00:08:29;;;;;;;38.95;34.80;;;7.60;64.00;;;;;;5096204;28;20192;-72
2022/03/27 00:13:42;;;;;;;38.13;33.95;;;7.60;64.20;;;;;;5096237;28;20214;-72
2022/03/27 00:16:09;;;;;;;36.13;32.72;;;7.60;64.00;;;;;;5096121;28;20200;-72
2022/03/27 00:18:36;;;;;;;35.25;32.05;;;7.60;64.00;;;;;;5095916;28;20204;-72
2022/03/27 00:21:03;;;;;;;35.72;32.53;;;7.60;63.80;;;;;;5095864;28;20204;-72
2022/03/27 00:23:30;;;;;;;36.40;32.65;;;7.60;63.60;;;;;;5095907;28;20222;-72
2022/03/27 00:25:57;;;;;;;35.33;32.05;;;7.50;64.70;;;;;;5096023;28;20203;-72
2022/03/27 00:28:25;;;;;;;37.53;34.25;;;7.40;64.80;;;;;;5095894;28;20641;-72
2022/03/27 00:30:53;;;;;;;37.70;34.20;;;7.40;65.10;;;;;;5095724;28;20666;-72
2022/03/27 00:33:20;;;;;;;35.55;31.70;;;7.30;66.10;;;;;;5095849;28;20223;-72
2022/03/27 00:35:47;;;;;;;36.25;32.67;;;7.30;65.20;;;;;;5095634;28;20307;-72
2022/03/27 00:38:14;;;;;;;35.55;32.35;;;7.30;65.70;;;;;;5095661;28;20200;-72
2022/03/27 00:40:41;;;;;;;35.70;32.60;;;7.30;65.10;;;;;;5095591;28;20195;-73
2022/03/27 00:43:07;;;;;;;37.05;33.92;;;7.30;64.70;;;;;;5095596;28;20216;-72
2022/03/27 00:45:34;;;;;;;36.63;32.67;;;7.30;64.70;;;;;;5095607;28;20199;-72
2022/03/27 00:48:03;;;;;;;35.05;31.92;;;7.30;64.80;;;;;;5095629;28;20196;-72
2022/03/27 00:50:30;;;;;;;35.92;32.05;;;7.20;64.90;;;;;;5095229;28;20286;-72
2022/03/27 00:52:57;;;;;;;36.88;33.50;;;7.20;65.20;;;;;;5095557;28;20229;-72
2022/03/27 00:55:24;;;;;;;35.65;31.98;;;7.20;65.50;;;;;;5095354;28;20223;-72
2022/03/27 00:57:51;;;;;;;37.30;34.13;;;7.10;65.80;;;;;;5095284;28;20192;-72
2022/03/27 01:00:49;;;;;;;35.30;32.10;;;7.10;66.30;;;;;;5095154;28;20202;-73
2022/03/27 01:03:21;;;;;;;34.42;31.42;;;7.00;66.40;;;;;;5095221;28;20242;-72
2022/03/27 01:05:49;;;;;;;37.00;33.33;;;7.00;65.90;;;;;;5095197;28;20198;-72
2022/03/27 01:08:17;;;;;;;35.60;32.42;;;7.00;65.70;;;;;;5095134;28;20263;-72
2022/03/27 01:10:43;;;;;;;36.58;33.00;;;6.90;65.80;;;;;;5095024;28;20573;-72
2022/03/27 01:13:12;;;;;;;37.45;34.05;;;6.90;66.10;;;;;;5094931;28;20267;-72
2022/03/27 01:15:42;;;;;;;37.05;33.15;;;6.90;66.30;;;;;;5094615;28;20225;-72
2022/03/27 01:18:09;;;;;;;35.47;32.35;;;6.80;66.60;;;;;;5094612;28;20282;-72
2022/03/27 01:20:41;;;;;;;36.80;33.47;;;6.80;66.70;;;;;;5094880;28;20203;-72
2022/03/27 01:23:10;;;;;;;34.78;31.67;;;6.70;66.90;;;;;;5095069;28;20225;-72
2022/03/27 01:25:38;;;;;;;35.72;32.22;;;6.70;67.00;;;;;;5094784;28;20534;-72
2022/03/27 01:28:05;;;;;;;36.30;32.75;;;6.70;66.90;;;;;;5094959;28;20204;-72
2022/03/27 01:30:33;;;;;;;36.50;33.20;;;6.70;67.20;;;;;;5094567;28;20687;-72
2022/03/27 01:33:00;;;;;;;35.05;31.67;;;6.60;67.30;;;;;;5094679;28;20219;-72
2022/03/27 01:35:26;;;;;;;34.92;31.65;;;6.70;66.80;;;;;;5094546;28;20305;-72
2022/03/27 01:37:55;;;;;;;37.03;33.20;;;6.70;66.80;;;;;;5094590;28;20191;-72
2022/03/27 01:40:22;;;;;;;36.65;33.00;;;6.60;67.20;;;;;;5094421;28;20200;-72
2022/03/27 01:42:52;;;;;;;34.63;31.40;;;6.70;67.00;;;;;;5094437;28;20215;-72
2022/03/27 01:45:19;;;;;;;36.72;33.05;;;6.50;67.50;;;;;;5094552;28;20256;-72
2022/03/27 01:47:46;;;;;;;36.40;32.70;;;6.40;68.00;;;;;;5094316;28;20195;-72
2022/03/27 01:50:13;;;;;;;35.03;32.03;;;6.40;68.10;;;;;;5094264;28;20235;-72
2022/03/27 01:52:40;;;;;;;36.47;32.78;;;6.40;68.20;;;;;;5094311;28;20640;-72
2022/03/27 01:55:11;;;;;;;36.83;33.25;;;6.30;68.60;;;;;;5094112;28;20306;-72
2022/03/27 01:57:39;;;;;;;36.42;33.38;;;6.20;68.90;;;;;;5094312;28;20230;-72
2022/03/27 02:00:09;;;;;;;36.17;32.88;;;6.20;69.00;;;;;;5094061;28;20242;-72
2022/03/27 02:02:36;;;;;;;37.88;34.15;;;6.20;69.00;;;;;;5094057;28;20219;-72
2022/03/27 02:05:04;;;;;;;35.83;32.75;;;6.20;69.10;;;;;;5094081;28;20194;-72
2022/03/27 02:07:36;;;;;;;36.88;33.53;;;6.20;69.10;;;;;;5094149;28;20205;-72
2022/03/27 02:10:04;;;;;;;35.92;32.28;;;6.30;68.60;;;;;;5094050;28;20207;-72
2022/03/27 02:12:34;;;;;;;39.08;35.67;;;6.30;68.90;;;;;;5093834;28;20215;-72
2022/03/27 02:15:01;;;;;;;37.60;34.20;;;6.30;68.80;;;;;;5093855;28;20268;-72
2022/03/27 02:17:27;;;;;;;37.72;33.80;;;6.20;69.20;;;;;;5093775;28;20557;-72
2022/03/27 02:19:54;;;;;;;35.60;32.35;;;6.20;69.20;;;;;;5093439;28;20679;-72
2022/03/27 02:22:21;;;;;;;35.95;32.45;;;6.10;69.60;;;;;;5093566;28;20215;-72
2022/03/27 02:24:48;;;;;;;34.53;31.17;;;5.90;70.10;;;;;;5093625;28;20195;-72
2022/03/27 02:27:15;;;;;;;37.15;33.60;;;5.90;70.20;;;;;;5093486;28;20203;-72
2022/03/27 02:29:43;;;;;;;35.90;32.53;;;5.90;70.20;;;;;;5092589;28;20199;-72
2022/03/27 02:32:10;;;;;;;37.97;34.13;;;5.90;70.30;;;;;;5093419;28;20243;-72
2022/03/27 02:34:37;;;;;;;36.53;33.63;;;5.90;71.50;;;;;;5093330;28;20687;-72
2022/03/27 02:37:05;;;;;;;37.67;33.88;;;5.90;70.60;;;;;;5093404;28;20565;-72
2022/03/27 02:39:32;;;;;;;36.17;32.63;;;5.90;70.80;;;;;;5093306;28;20238;-72
2022/03/27 02:41:59;;;;;;;36.10;32.50;;;5.80;71.00;;;;;;5093266;28;20704;-72
2022/03/27 02:44:26;;;;;;;35.13;32.13;;;5.90;70.80;;;;;;5093338;28;20196;-72
2022/03/27 02:46:54;;;;;;;36.08;32.85;;;5.90;70.60;;;;;;5093260;28;20199;-72
2022/03/27 02:49:21;;;;;;;36.50;33.25;;;5.80;70.50;;;;;;5093040;28;20221;-72
2022/03/27 02:51:48;;;;;;;35.72;32.53;;;5.80;71.20;;;;;;5093188;28;20665;-72
2022/03/27 02:54:15;;;;;;;36.65;33.25;;;5.70;73.00;;;;;;5093232;28;20198;-72
2022/03/27 02:56:42;;;;;;;37.35;33.75;;;5.80;71.80;;;;;;5092998;28;20595;-72
2022/03/27 02:59:09;;;;;;;36.53;32.85;;;5.80;71.20;;;;;;5093143;28;20206;-72
2022/03/27 03:01:37;;;;;;;34.72;31.33;;;5.70;71.20;;;;;;5092854;28;20586;-72
2022/03/27 03:04:06;;;;;;;36.10;32.65;;;5.70;71.50;;;;;;5093034;28;20210;-72
2022/03/27 03:06:33;;;;;;;37.28;33.97;;;5.70;71.50;;;;;;5092863;28;20187;-72
2022/03/27 03:09:00;;;;;;;40.67;34.10;;;5.70;72.00;;;;;;5093007;28;20208;-72
2022/03/27 03:11:27;;;;;;;37.50;34.30;;;5.70;72.20;;;;;;5092784;28;20282;-72
2022/03/27 03:13:55;;;;;;;36.70;33.42;;;5.70;73.00;;;;;;5092760;28;20215;-72
2022/03/27 03:16:22;;;;;;;37.38;33.67;;;5.70;73.40;;;;;;5092667;28;20230;-72
2022/03/27 03:18:49;;;;;;;36.85;33.15;;;5.60;74.40;;;;;;5092578;28;20212;-72
2022/03/27 03:21:18;;;;;;;36.47;32.90;;;5.60;73.40;;;;;;5092726;28;20679;-72
2022/03/27 03:23:45;;;;;;;36.17;32.65;;;5.60;74.20;;;;;;5092633;28;20720;-72
2022/03/27 03:26:12;;;;;;;38.25;34.20;;;5.60;72.00;;;;;;5092890;28;20286;-72
2022/03/27 03:28:38;;;;;;;38.45;34.75;;;5.60;71.80;;;;;;5092696;28;20196;-72
2022/03/27 03:31:06;;;;;;;36.00;32.40;;;5.60;72.20;;;;;;5092360;28;20290;-72
2022/03/27 03:33:33;;;;;;;36.75;33.55;;;5.50;74.00;;;;;;5092726;28;20217;-72
2022/03/27 03:36:00;;;;;;;38.95;35.38;;;5.40;73.20;;;;;;5092592;28;20253;-72
2022/03/27 03:38:28;;;;;;;36.05;32.85;;;5.40;73.10;;;;;;5092608;28;20524;-72
2022/03/27 03:40:55;;;;;;;36.03;32.20;;;5.40;72.90;;;;;;5092138;28;20198;-72
2022/03/27 03:43:22;;;;;;;38.33;34.60;;;5.40;72.90;;;;;;5092683;28;20765;-72
2022/03/27 03:45:49;;;;;;;35.90;32.63;;;5.40;72.80;;;;;;5092797;28;20196;-72
2022/03/27 03:48:16;;;;;;;36.40;33.17;;;5.50;72.60;;;;;;5092629;28;20203;-72
2022/03/27 03:50:42;;;;;;;35.97;32.97;;;5.40;73.10;;;;;;5092385;28;20290;-72
2022/03/27 03:53:10;;;;;;;36.72;32.45;;;5.30;73.00;;;;;;5092539;28;20216;-72
2022/03/27 03:55:38;;;;;;;37.50;33.65;;;5.30;73.20;;;;;;5092365;28;20222;-72
2022/03/27 03:58:05;;;;;;;37.28;33.55;;;5.30;73.40;;;;;;5092151;28;20199;-72
2022/03/27 04:00:32;;;;;;;37.53;33.95;;;5.20;73.50;;;;;;5092087;28;20669;-72
2022/03/27 04:02:59;;;;;;;36.70;33.05;;;5.20;73.40;;;;;;5092261;28;20303;-72
2022/03/27 04:05:26;;;;;;;36.75;33.35;;;5.30;73.30;;;;;;5092342;28;20191;-72
2022/03/27 04:07:53;;;;;;;36.33;33.03;;;5.30;73.20;;;;;;5092581;28;20299;-72
2022/03/27 04:10:20;;;;;;;36.95;33.30;;;5.30;73.30;;;;;;5092234;28;20278;-72
2022/03/27 04:12:48;;;;;;;36.90;33.20;;;5.30;73.30;;;;;;5092321;28;20237;-72
2022/03/27 04:15:15;;;;;;;36.00;32.78;;;5.20;73.30;;;;;;5092425;28;20211;-72
2022/03/27 04:17:44;;;;;;;37.72;33.58;;;5.20;73.50;;;;;;5092398;28;20202;-72
2022/03/27 04:20:12;;;;;;;37.70;33.80;;;5.20;73.80;;;;;;5092073;28;20676;-72
2022/03/27 04:22:39;;;;;;;36.47;32.90;;;5.20;73.90;;;;;;5092171;28;20606;-72
2022/03/27 04:25:07;;;;;;;37.08;33.75;;;5.20;73.60;;;;;;5092065;28;20588;-72
2022/03/27 04:27:34;;;;;;;36.65;32.83;;;5.10;73.70;;;;;;5092219;28;20191;-72
2022/03/27 04:30:03;;;;;;;37.42;33.95;;;5.10;73.90;;;;;;5091900;28;20191;-72
2022/03/27 04:32:30;;;;;;;36.67;32.88;;;5.10;74.00;;;;;;5092241;28;20708;-72
2022/03/27 04:34:57;;;;;;;37.78;34.33;;;5.00;74.10;;;;;;5092064;28;20203;-72
2022/03/27 04:37:24;;;;;;;36.85;32.85;;;5.10;74.00;;;;;;5091974;28;20195;-72
2022/03/27 04:39:51;;;;;;;39.05;35.28;;;5.00;74.20;;;;;;5091877;28;20564;-72
2022/03/27 04:42:18;;;;;;;36.50;33.25;;;5.00;74.50;;;;;;5091957;28;20705;-72
2022/03/27 04:44:45;;;;;;;37.58;34.28;;;5.00;74.60;;;;;;5092006;28;20196;-72
2022/03/27 04:47:13;;;;;;;35.85;32.30;;;5.00;74.60;;;;;;5092110;28;20286;-72
2022/03/27 04:49:40;;;;;;;38.58;34.50;;;5.00;74.60;;;;;;5091777;28;20209;-72
2022/03/27 04:52:07;;;;;;;36.40;32.60;;;5.00;74.30;;;;;;5093598;28;20222;-72
2022/03/27 04:54:34;;;;;;;38.00;34.38;;;4.90;74.40;;;;;;5095531;28;20195;-72
2022/03/27 04:57:01;;;;;;;37.30;33.97;;;4.90;74.60;;;;;;5095209;28;20223;-72
2022/03/27 04:59:28;;;;;;;36.92;33.15;;;4.80;74.80;;;;;;5095457;28;20227;-72
2022/03/27 05:01:55;;;;;;;40.28;36.42;;;4.80;74.90;;;;;;5095219;28;20338;-72
2022/03/27 05:04:24;;;;;;;37.80;34.17;;;4.80;75.10;;;;;;5095267;28;20232;-72
2022/03/27 05:06:51;;;;;;;39.53;35.85;;;4.80;75.00;;;;;;5095154;28;20204;-72
2022/03/27 05:09:19;;;;;;;39.28;35.55;;;4.80;74.80;;;;;;5095091;28;20222;-72
2022/03/27 05:11:45;;;;;;;37.35;34.00;;;4.80;74.80;;;;;;5095365;28;20199;-72
2022/03/27 05:14:13;;;;;;;36.05;32.55;;;4.90;74.80;;;;;;5095298;28;20226;-72
2022/03/27 05:16:40;;;;;;;37.40;33.72;;;4.90;74.70;;;;;;5095116;28;20542;-72
2022/03/27 05:19:07;;;;;;;36.70;32.88;;;4.80;74.80;;;;;;5094911;28;20211;-72
2022/03/27 05:21:36;;;;;;;37.15;33.28;;;4.80;74.90;;;;;;5094966;28;20203;-72
2022/03/27 05:24:03;;;;;;;37.75;34.25;;;4.80;75.30;;;;;;5095070;28;20205;-72
2022/03/27 05:26:30;;;;;;;37.10;33.60;;;4.80;75.30;;;;;;5094964;28;20235;-72
2022/03/27 05:28:57;;;;;;;35.72;32.28;;;4.70;75.30;;;;;;5095065;28;20195;-72
2022/03/27 05:31:24;;;;;;;37.60;34.33;;;4.80;75.30;;;;;;5094571;28;20290;-72
2022/03/27 05:33:51;;;;;;;36.17;32.75;;;4.90;74.70;;;;;;5094629;28;20214;-72
2022/03/27 05:36:18;;;;;;;35.65;32.55;;;5.00;74.50;;;;;;5094556;28;20730;-72
2022/03/27 05:38:46;;;;;;;35.25;31.90;;;5.00;74.30;;;;;;5094730;28;20237;-72
2022/03/27 05:41:13;;;;;;;37.92;34.08;;;5.00;74.40;;;;;;5094564;28;20290;-72
2022/03/27 05:43:41;;;;;;;35.55;32.08;;;4.90;74.80;;;;;;5094501;28;20301;-72
2022/03/27 05:46:08;;;;;;;35.90;32.55;;;4.90;75.10;;;;;;5094538;28;20199;-72
2022/03/27 05:48:35;;;;;;;38.00;34.38;;;5.00;74.80;;;;;;5094518;28;20278;-72
2022/03/27 05:51:02;;;;;;;36.92;33.58;;;5.10;74.30;;;;;;5094341;28;20242;-72
2022/03/27 05:53:29;;;;;;;33.88;31.05;;;5.00;74.20;;;;;;5094406;28;20759;-72
2022/03/27 05:55:59;;;;;;;37.08;32.13;;;5.00;74.50;;;;;;5094550;28;20579;-71
2022/03/27 05:58:26;;;;;;;37.05;33.53;;;5.00;74.60;;;;;;5094276;28;20203;-72
2022/03/27 06:00:53;;;;;;;38.55;34.67;;;5.00;74.70;;;;;;5094589;28;20194;-72
2022/03/27 06:03:19;;;;;;;37.15;33.78;;;5.00;74.80;;;;;;5093662;28;20266;-72
2022/03/27 06:05:46;;;;;;;36.90;33.03;;;5.00;74.80;;;;;;5094379;28;20698;-72
2022/03/27 06:08:13;;;;;;;38.75;35.45;;;5.20;74.70;;;;;;5094133;28;20557;-72
2022/03/27 06:10:41;;;;;;;35.85;32.45;;;5.30;74.30;;;;;;5093978;28;20191;-72
2022/03/27 06:13:10;;;;;;;37.38;33.38;;;5.40;73.60;;;;;;5094115;28;20219;-72
2022/03/27 06:15:37;;;;;;;37.78;33.88;;;5.50;73.30;;;;;;5093917;28;20192;-72
2022/03/27 06:18:04;;;;;;;38.47;34.78;;;5.50;73.30;;;;;;5093883;28;20195;-72
2022/03/27 06:20:32;;;;;;;37.97;34.53;;;5.50;73.40;;;;;;5093546;28;20210;-72
2022/03/27 06:23:01;;;;;;;36.80;33.35;;;5.60;73.40;;;;;;5093815;28;20310;-72
2022/03/27 06:25:29;;;;;;;38.70;34.97;;;5.70;73.40;;;;;;5093734;28;20203;-72
2022/03/27 06:27:57;;;;;;;37.80;34.10;;;5.70;73.50;;;;;;5093778;28;20197;-72
2022/03/27 06:30:27;;;;;;;36.95;33.03;;;5.80;73.40;;;;;;5093566;28;20192;-72
2022/03/27 06:32:54;;;;;;;37.28;33.92;;;5.90;73.10;;;;;;5093559;28;20314;-72
2022/03/27 06:35:23;;;;;;;36.22;33.17;;;6.00;73.00;;;;;;5093553;28;20196;-72
2022/03/27 06:37:51;;;;;;;40.35;36.40;;;6.10;72.80;;;;;;5093380;28;20240;-72
2022/03/27 06:40:19;;;;;;;39.15;35.30;;;6.20;72.70;;;;;;5093259;28;20283;-72
2022/03/27 06:42:47;;;;;;;39.17;35.30;;;6.30;72.40;;;;;;5093362;28;20724;-72
2022/03/27 06:45:15;;;;;;;39.90;36.13;;;6.30;72.10;;;;;;5093513;28;20288;-72
2022/03/27 06:47:45;;;;;;;38.30;34.75;;;6.50;71.80;;;;;;5093312;28;20534;-72
2022/03/27 06:50:13;;;;;;;38.55;34.95;;;6.60;71.20;;;;;;5093229;28;20304;-72
2022/03/27 06:52:42;;;;;;;38.83;34.80;;;6.60;70.60;;;;;;5093171;28;20585;-72
2022/03/27 06:55:10;;;;;;;35.13;32.00;;;6.70;70.90;;;;;;5093187;28;20222;-72
2022/03/27 06:57:38;;;;;;;37.80;34.35;;;6.80;70.50;;;;;;5092897;28;20230;-70
2022/03/27 07:03:09;;;;;;;38.55;34.88;;;7.10;69.80;;;;;;5050348;28;20214;-72
2022/03/27 07:05:39;;;;;;;40.20;36.25;;;7.20;69.40;;;;;;5050723;28;20193;-72
2022/03/27 07:08:07;;;;;;;39.58;35.42;;;7.30;69.30;;;;;;5070891;28;20213;-72
2022/03/27 07:10:36;;;;;;;37.55;34.38;;;7.40;69.10;;;;;;5092918;28;20294;-72
2022/03/27 07:13:03;;;;;;;56.60;42.85;;;7.50;68.80;;;;;;5092938;28;20223;-72
2022/03/27 07:15:30;;;;;;;56.42;40.83;;;7.60;68.60;;;;;;5092385;28;20213;-72
2022/03/27 07:17:59;;;;;;;39.90;36.10;;;7.80;68.10;;;;;;5092740;28;20664;-73
2022/03/27 07:20:29;;;;;;;40.22;36.33;;;8.00;67.70;;;;;;5092578;28;20612;-72
2022/03/27 07:22:57;;;;;;;83.28;48.70;;;8.10;67.30;;;;;;5092784;28;20217;-72
2022/03/27 07:25:26;;;;;;;66.13;42.60;;;8.20;67.00;;;;;;5092770;28;20286;-73
2022/03/27 07:27:54;;;;;;;50.70;39.55;;;8.30;66.30;;;;;;5092743;28;20211;-71
2022/03/27 07:30:21;;;;;;;89.60;51.95;;;8.30;66.20;;;;;;5092615;28;20204;-72
2022/03/27 07:32:48;;;;;;;43.45;37.33;;;8.40;66.00;;;;;;5092733;28;20219;-72
2022/03/27 07:35:16;;;;;;;106.13;55.53;;;8.50;65.80;;;;;;5092754;28;20197;-72
2022/03/27 07:37:45;;;;;;;39.50;36.00;;;8.70;65.30;;;;;;5092563;28;20227;-72
2022/03/27 07:40:14;;;;;;;89.65;46.88;;;8.90;65.00;;;;;;5092425;28;20657;-72
2022/03/27 07:42:42;;;;;;;42.10;37.83;;;9.10;63.80;;;;;;5092499;28;20305;-73
2022/03/27 07:45:10;;;;;;;54.47;42.58;;;9.20;63.30;;;;;;5092470;28;20207;-72
2022/03/27 07:47:37;;;;;;;51.10;40.40;;;9.40;62.60;;;;;;5092649;28;20201;-72
2022/03/27 07:50:06;;;;;;;67.90;41.83;;;9.50;62.40;;;;;;5092228;28;20193;-72
2022/03/27 07:52:33;;;;;;;50.15;43.50;;;9.60;62.10;;;;;;5092492;28;20228;-72
2022/03/27 07:55:01;;;;;;;71.38;45.58;;;9.70;61.80;;;;;;5092478;28;20207;-72
2022/03/27 07:57:28;;;;;;;53.65;44.17;;;9.90;61.40;;;;;;5092142;28;20219;-72
2022/03/27 07:59:56;;;;;;;78.38;50.22;;;9.90;61.60;;;;;;5092264;28;20201;-72
2022/03/27 08:02:23;;;;;;;43.50;39.67;;;10.00;61.30;;;;;;5092257;28;20220;-73
2022/03/27 08:04:50;;;;;;;45.20;40.70;;;10.10;61.50;;;;;;5092377;28;20201;-73
2022/03/27 08:07:17;;;;;;;42.85;38.90;;;10.00;61.40;;;;;;5092391;28;20601;-72
2022/03/27 08:09:44;;;;;;;43.30;38.60;;;10.10;61.40;;;;;;5092095;28;20724;-73
2022/03/27 08:12:13;;;;;;;54.17;43.42;;;10.20;61.50;;;;;;5092076;28;20728;-72
2022/03/27 08:14:43;;;;;;;109.43;55.85;;;10.20;60.80;;;;;;5092277;28;20205;-73
2022/03/27 08:17:11;;;;;;;44.97;40.38;;;10.10;61.50;;;;;;5092336;28;20252;-73
2022/03/27 08:19:38;;;;;;;48.85;40.40;;;10.40;61.40;;;;;;5091966;28;20210;-73
2022/03/27 08:22:05;;;;;;;42.65;38.90;;;10.70;60.40;;;;;;5092218;28;20721;-73
2022/03/27 08:24:33;;;;;;;42.90;38.50;;;10.80;59.90;;;;;;5092272;28;20288;-72
2022/03/27 08:27:00;;;;;;;41.97;37.78;;;10.80;59.70;;;;;;5095512;28;20455;-72
2022/03/27 08:29:30;;;;;;;65.22;49.83;;;10.80;59.90;;;;;;5095863;28;20217;-72
2022/03/27 08:31:59;;;;;;;54.60;44.65;;;10.90;59.90;;;;;;5096037;28;20228;-73
2022/03/27 08:34:26;;;;;;;110.85;56.65;;;11.00;59.50;;;;;;5095917;28;20663;-73
2022/03/27 08:36:53;;;;;;;40.63;37.03;;;11.00;59.30;;;;;;5095825;28;20222;-72
2022/03/27 08:39:20;;;;;;;41.30;37.50;;;11.20;59.10;;;;;;5095640;28;20542;-72
2022/03/27 08:41:48;;;;;;;45.20;40.33;;;11.40;58.60;;;;;;5095731;28;20450;-73
2022/03/27 08:44:18;;;;;;;42.73;38.30;;;11.50;58.20;;;;;;5095767;28;20452;-73
2022/03/27 08:46:48;;;;;;;44.00;39.67;;;11.60;58.10;;;;;;5095749;28;20452;-73
2022/03/27 08:49:29;;;;;;;41.40;37.57;;;11.70;57.90;;;;;;5095405;28;20539;-73
2022/03/27 08:52:02;;;;;;;50.90;45.60;;;11.90;57.30;;;;;;5095638;28;20470;-72
2022/03/27 08:54:38;;;;;;;46.30;41.60;;;11.80;57.50;;;;;;5095842;28;20463;-73
2022/03/27 08:57:15;;;;;;;52.60;43.30;;;11.90;57.40;;;;;;5095431;28;20574;-73
2022/03/27 08:59:43;;;;;;;43.67;38.63;;;11.90;57.30;;;;;;5095325;28;20493;-73
2022/03/27 09:02:13;;;;;;;43.20;38.67;;;12.10;57.10;;;;;;5095127;28;20479;-73
2022/03/27 09:04:42;;;;;;;44.17;39.80;;;12.30;56.70;;;;;;5095525;28;20452;-73
2022/03/27 09:07:09;;;;;;;42.30;38.80;;;12.40;56.60;;;;;;5095353;28;20445;-73
2022/03/27 09:09:36;;;;;;;39.90;36.40;;;12.50;56.60;;;;;;5095015;28;20456;-73
2022/03/27 09:12:04;;;;;;;41.37;37.53;;;12.70;56.20;;;;;;5095294;28;20476;-73
2022/03/27 09:14:33;;;;;;;42.07;38.37;;;12.80;56.00;;;;;;5095142;28;20460;-73
2022/03/27 09:17:01;;;;;;;42.20;37.63;;;12.90;55.80;;;;;;5095219;28;20475;-73
2022/03/27 09:19:35;;;;;;;42.27;38.27;;;13.00;55.60;;;;;;5094748;28;21306;-73
2022/03/27 09:22:13;;;;;;;40.43;36.63;;;13.20;55.50;;;;;;5095150;28;20560;-73
2022/03/27 09:24:40;;;;;;;38.70;35.10;;;13.30;55.20;;;;;;5095002;28;20510;-73
2022/03/27 09:27:07;;;;;;;38.83;35.37;;;13.50;54.80;;;;;;5094798;28;20444;-73
2022/03/27 09:29:59;;;;;;;39.70;36.10;;;13.50;54.80;;;;;;5094869;28;20453;-73
2022/03/27 09:32:27;;;;;;;40.40;36.90;;;13.70;54.40;;;;;;5094890;28;20470;-73
2022/03/27 09:35:05;;;;;;;38.60;35.20;;;13.60;54.40;;;;;;5094865;28;20445;-73
2022/03/27 09:37:33;;;;;;;41.13;37.20;;;13.60;54.30;;;;;;5094290;28;20508;-73
2022/03/27 09:40:00;;;;;;;40.30;36.80;;;13.60;54.40;;;;;;5094633;28;20456;-73
2022/03/27 09:42:27;;;;;;;72.30;45.90;;;13.70;54.50;;;;;;5094586;28;20469;-74
2022/03/27 09:45:17;;;;;;;41.00;37.10;;;13.70;54.20;;;;;;5094619;28;20453;-73
2022/03/27 09:47:45;;;;;;;39.43;35.90;;;14.00;53.70;;;;;;5094714;28;20450;-74
2022/03/27 09:50:34;;;;;;;40.80;36.93;;;14.20;53.30;;;;;;5094216;28;20903;-74
2022/03/27 09:53:26;;;;;;;39.40;35.60;;;14.30;52.90;;;;;;5094462;28;20850;-74
2022/03/27 09:56:10;;;;;;;41.33;37.43;;;14.60;52.50;;;;;;5079661;28;20450;-74
2022/03/27 09:58:39;;;;;;;41.40;37.50;;;14.60;52.20;;;;;;5094198;28;20560;-73
2022/03/27 10:01:14;;;;;;;38.83;35.40;;;14.70;52.10;;;;;;5094303;28;20461;-73
2022/03/27 10:03:58;;;;;;;40.13;36.50;;;14.70;52.10;;;;;;5094116;28;20991;-73
2022/03/27 10:06:32;;;;;;;37.53;34.30;;;14.80;51.70;;;;;;5094112;28;20445;-73
2022/03/27 10:09:00;;;;;;;38.73;35.13;;;15.00;51.50;;;;;;5094100;28;20449;-73
2022/03/27 10:11:27;;;;;;;39.67;36.17;;;15.20;51.10;;;;;;5093888;28;20477;-73
2022/03/27 10:13:55;;;;;;;38.07;34.73;;;15.30;50.90;;;;;;5094154;28;20556;-72
2022/03/27 10:16:26;;;;;;;39.30;35.60;;;15.30;50.90;;;;;;5093847;28;20492;-73
2022/03/27 10:18:58;;;;;;;39.37;35.93;;;15.40;50.90;;;;;;5093600;28;20488;-73
2022/03/27 10:21:27;;;;;;;41.20;37.40;;;15.40;50.70;;;;;;5093732;28;20449;-74
2022/03/27 10:24:01;;;;;;;39.50;35.70;;;15.30;50.80;;;;;;5093784;28;20556;-73
2022/03/27 10:26:30;;;;;;;37.83;34.53;;;15.30;50.90;;;;;;5093836;28;20445;-73
2022/03/27 10:28:59;;;;;;;40.40;36.70;;;15.60;50.30;;;;;;5093710;28;20464;-73
2022/03/27 10:31:27;;;;;;;38.00;34.80;;;15.70;49.90;;;;;;5093356;28;20448;-73
2022/03/27 10:33:55;;;;;;;38.07;35.07;;;15.70;50.10;;;;;;5093580;28;20476;-73
2022/03/27 10:36:30;;;;;;;38.97;35.30;;;15.60;50.20;;;;;;5093573;28;20465;-73
2022/03/27 10:39:09;;;;;;;40.17;36.37;;;15.60;50.30;;;;;;5093413;28;20473;-73
2022/03/27 10:41:42;;;;;;;37.73;34.37;;;15.70;49.90;;;;;;5093614;28;20464;-73
2022/03/27 10:44:18;;;;;;;39.20;35.30;;;15.80;49.80;;;;;;5093458;28;20507;-73
2022/03/27 10:47:06;;;;;;;37.83;34.23;;;15.90;49.70;;;;;;5093328;28;20927;-73
2022/03/27 10:49:32;;;;;;;38.23;35.03;;;16.00;49.30;;;;;;5092123;28;20947;-73
2022/03/27 10:52:05;;;;;;;37.67;34.37;;;16.10;49.20;;;;;;5093334;28;20835;-74
2022/03/27 10:54:57;;;;;;;39.40;35.97;;;16.20;48.80;;;;;;5093148;28;20573;-73
2022/03/27 10:57:31;;;;;;;38.57;34.80;;;16.40;48.60;;;;;;5092954;28;20477;-73
2022/03/27 10:59:59;;;;;;;38.27;34.50;;;16.30;48.80;;;;;;5093034;28;20455;-73
2022/03/27 11:02:46;;;;;;;40.13;36.63;;;16.30;49.00;;;;;;5092937;28;20556;-73
2022/03/27 11:05:50;;;;;;;39.27;35.30;;;16.40;48.60;;;;;;5093030;28;20464;-73
2022/03/27 11:08:48;;;;;;;45.23;40.40;;;16.50;48.50;;;;;;5093067;28;20448;-73
2022/03/27 11:11:56;;;;;;;40.10;36.50;;;16.70;48.50;;;;;;5092785;28;20529;-73
2022/03/27 11:14:47;;;;;;;38.77;35.30;;;16.70;48.30;;;;;;5093014;28;20951;-73
2022/03/27 11:17:14;;;;;;;38.50;35.37;;;16.90;48.30;;;;;;5092622;28;20939;-73
2022/03/27 11:19:44;;;;;;;36.53;33.40;;;17.00;47.50;;;;;;5092479;28;20568;-73
2022/03/27 11:22:51;;;;;;;38.80;35.23;;;16.90;47.60;;;;;;5092774;28;20950;-73
2022/03/27 11:25:30;;;;;;;38.80;35.40;;;17.10;47.10;;;;;;5092933;28;20448;-73
2022/03/27 11:28:10;;;;;;;38.43;35.10;;;17.20;46.70;;;;;;5092957;28;20445;-73
2022/03/27 11:30:40;;;;;;;38.93;35.53;;;17.30;46.10;;;;;;5092637;28;20455;-73
2022/03/27 11:33:15;;;;;;;39.43;35.97;;;17.30;46.50;;;;;;5092712;28;21026;-73
2022/03/27 11:35:43;;;;;;;38.23;35.03;;;17.40;46.60;;;;;;5092679;28;20452;-73
2022/03/27 11:38:20;;;;;;;104.20;54.07;;;17.40;46.40;;;;;;5092513;28;20480;-73
2022/03/27 11:40:48;;;;;;;36.80;33.97;;;17.40;46.00;;;;;;5092526;28;20922;-73
2022/03/27 11:43:30;;;;;;;38.53;35.13;;;17.30;46.20;;;;;;5092674;28;20552;-73
2022/03/27 11:45:58;;;;;;;40.37;36.77;;;17.50;45.30;;;;;;5092783;28;20453;-73
2022/03/27 11:48:26;;;;;;;36.90;33.70;;;17.70;44.70;;;;;;5092644;28;20493;-73
2022/03/27 11:50:54;;;;;;;36.67;33.60;;;17.90;44.00;;;;;;5092548;28;20536;-73
2022/03/27 11:53:31;;;;;;;37.23;33.87;;;18.00;43.40;;;;;;5092566;28;20843;-73
2022/03/27 11:56:06;;;;;;;39.73;35.73;;;18.00;43.20;;;;;;5092626;28;20536;-73
2022/03/27 11:58:36;;;;;;;38.67;34.77;;;18.20;43.10;;;;;;5092181;28;20484;-73
2022/03/27 12:01:04;;;;;;;36.60;33.80;;;18.20;42.50;;;;;;5094062;28;20445;-73
2022/03/27 12:03:31;;;;;;;41.03;37.83;;;18.30;42.50;;;;;;5096389;28;20473;-73
2022/03/27 12:06:05;;;;;;;43.23;38.73;;;18.40;42.30;;;;;;5096709;28;20455;-73
2022/03/27 12:08:34;;;;;;;38.37;34.60;;;18.60;41.90;;;;;;5096558;28;20449;-74
2022/03/27 12:11:05;;;;;;;38.67;35.70;;;18.60;41.50;;;;;;5096418;28;20456;-74
2022/03/27 12:13:38;;;;;;;38.93;35.53;;;18.80;40.50;;;;;;5096174;28;20477;-74
2022/03/27 12:16:05;;;;;;;35.57;32.40;;;18.60;40.70;;;;;;5096329;28;20953;-74
2022/03/27 12:18:34;;;;;;;36.13;33.00;;;18.80;40.00;;;;;;5096015;28;20560;-74
2022/03/27 12:21:03;;;;;;;36.60;33.67;;;18.90;40.00;;;;;;5096039;28;20449;-74
2022/03/27 12:23:31;;;;;;;35.77;32.87;;;18.90;38.90;;;;;;5096098;28;20469;-73
2022/03/27 12:26:03;;;;;;;37.20;33.93;;;18.80;38.90;;;;;;5096103;28;20458;-73
2022/03/27 12:31:27;;;;;;;37.53;33.90;;;19.10;38.60;;;;;;5095877;28;20439;-74
2022/03/27 12:33:57;;;;;;;36.87;33.63;;;19.10;38.50;;;;;;5096215;28;20561;-74
2022/03/27 12:36:24;;;;;;;39.77;35.83;;;19.30;38.20;;;;;;5095882;28;20446;-73
2022/03/27 12:38:51;;;;;;;39.13;35.13;;;19.40;38.00;;;;;;5095697;28;20483;-74
2022/03/27 12:41:37;;;;;;;39.53;35.50;;;19.40;37.60;;;;;;5095984;28;20446;-74
2022/03/27 12:44:05;;;;;;;35.60;32.67;;;19.40;38.00;;;;;;5095848;28;20451;-73
2022/03/27 12:46:33;;;;;;;37.60;34.10;;;19.40;37.60;;;;;;5095708;28;20492;-73
2022/03/27 12:49:02;;;;;;;33.83;31.03;;;19.50;37.70;;;;;;5095630;28;20524;-72
2022/03/27 12:51:30;;;;;;;36.90;33.57;;;19.60;37.30;;;;;;5095463;28;20857;-73
2022/03/27 12:54:05;;;;;;;35.70;32.73;;;19.60;36.70;;;;;;5095795;28;20469;-73